Bookmark and Share
Track history (hours):
 

Solana

More information available from US FCC via Universal Licensing System and Coast Guard Vessel Documentation Center.

Last reported at 2014-Apr-19 06:33 UTC. Time now 2014-Apr-19 06:54 UTC.
Position N 47°39' W 122°20'.

Type: Towing. MMSI: 366969740.

NotesDate/timePositionNaut miles runAvg speedWind from/ knotsBaromVisibWave heightAir tempDewpointWater temp
2014-Apr-19 06:33N 47°39' W 122°20'0 0.0
2014-Apr-19 06:31N 47°39' W 122°20'0 0.0
2014-Apr-19 05:51N 47°39' W 122°20'0 0.0
2014-Apr-19 05:33N 47°39' W 122°20'0 0.0
2014-Apr-19 04:34N 47°39' W 122°20'0 0.0
2014-Apr-19 04:31N 47°39' W 122°20'0 0.0
2014-Apr-19 03:33N 47°39' W 122°20'0 0.0
2014-Apr-19 03:31N 47°39' W 122°20'0 0.0
2014-Apr-19 02:34N 47°39' W 122°20'0 0.0
2014-Apr-19 02:30N 47°39' W 122°20'0 0.0
2014-Apr-19 01:33N 47°39' W 122°20'0 0.0
2014-Apr-19 01:30N 47°39' W 122°20'0 0.0
2014-Apr-19 00:33N 47°39' W 122°20'0 0.0
2014-Apr-19 00:30N 47°39' W 122°20'0 0.4
2014-Apr-18 23:33N 47°39' W 122°20'1 4.7
2014-Apr-18 23:14N 47°39' W 122°18'1 1.7
2014-Apr-18 22:34N 47°39' W 122°16'0 0.5
2014-Apr-18 22:10N 47°39' W 122°16'1 1.0
2014-Apr-18 21:34N 47°38' W 122°15'0 0.7
2014-Apr-18 21:30N 47°38' W 122°15'2 2.3
2014-Apr-18 20:30N 47°41' W 122°15'0 7.8
2014-Apr-18 20:29N 47°41' W 122°15'4 4.8
2014-Apr-18 19:34N 47°45' W 122°16'3 8.5
2014-Apr-18 19:14N 47°42' W 122°15'4 5.9
2014-Apr-18 18:33N 47°38' W 122°15'0 0.0
2014-Apr-18 18:29N 47°38' W 122°15'0 0.3
2014-Apr-18 17:33N 47°39' W 122°15'0 0.3
2014-Apr-18 17:30N 47°39' W 122°15'1 1.0
2014-Apr-18 16:34N 47°39' W 122°16'0 0.7
2014-Apr-18 16:14N 47°38' W 122°17'0 0.2
2014-Apr-18 15:33N 47°39' W 122°16'0 0.4
2014-Apr-18 15:14N 47°39' W 122°17'0 0.0
2014-Apr-18 14:33N 47°39' W 122°17'0 0.0
2014-Apr-18 14:29N 47°39' W 122°17'2 2.2
2014-Apr-18 13:32N 47°39' W 122°20'0 5.9
2014-Apr-18 13:29N 47°39' W 122°20'0 0.3
2014-Apr-18 12:33N 47°39' W 122°20'0 0.0
2014-Apr-18 12:29N 47°39' W 122°20'0 0.0
2014-Apr-18 11:33N 47°39' W 122°20'0 0.0
2014-Apr-18 11:29N 47°39' W 122°20'0 0.0
2014-Apr-18 10:33N 47°39' W 122°20'0 0.0
2014-Apr-18 10:29N 47°39' W 122°20'0 0.0
2014-Apr-18 09:31N 47°39' W 122°20'0 0.0
2014-Apr-18 09:29N 47°39' W 122°20'0 0.0
2014-Apr-18 08:32N 47°39' W 122°20'0 0.0
2014-Apr-18 08:29N 47°39' W 122°20'0 0.0
2014-Apr-18 07:33N 47°39' W 122°20'0 0.0
2014-Apr-18 07:29N 47°39' W 122°20'0 0.0
2014-Apr-18 06:33N 47°39' W 122°20'0 0.0
2014-Apr-18 06:29N 47°39' W 122°20'0 0.0
2014-Apr-18 05:34N 47°39' W 122°20'0 0.0
2014-Apr-18 05:33N 47°39' W 122°20'0 0.0
2014-Apr-18 04:33N 47°39' W 122°20'0 0.0
2014-Apr-18 04:29N 47°39' W 122°20'0 0.0
2014-Apr-18 03:33N 47°39' W 122°20'0 0.0
2014-Apr-18 03:28N 47°39' W 122°20'0 0.0
2014-Apr-18 02:33N 47°39' W 122°20'0 0.0
2014-Apr-18 02:29N 47°39' W 122°20'0 0.0
2014-Apr-18 01:33N 47°39' W 122°20'0 0.0
2014-Apr-18 01:29N 47°39' W 122°20'0 0.0
2014-Apr-18 00:33N 47°39' W 122°20'0 0.0
2014-Apr-18 00:29N 47°39' W 122°20'0 0.0
2014-Apr-17 23:33N 47°39' W 122°20'0 0.0
2014-Apr-17 23:33N 47°39' W 122°20'0 0.0
2014-Apr-17 22:33N 47°39' W 122°20'0 0.0
2014-Apr-17 22:33N 47°39' W 122°20'4 3.9
2014-Apr-17 21:34N 47°38' W 122°15'0 0.0
2014-Apr-17 21:33N 47°38' W 122°15'0 0.1
2014-Apr-17 20:32N 47°39' W 122°15'0 0.3
2014-Apr-17 20:24N 47°39' W 122°15'1 0.9
2014-Apr-17 19:32N 47°39' W 122°16'1 0.7
2014-Apr-17 18:33N 47°39' W 122°15'0 6.4
2014-Apr-17 18:33N 47°39' W 122°15'0 0.2
2014-Apr-17 17:33N 47°39' W 122°15'0 1.7
2014-Apr-17 17:19N 47°38' W 122°15'0 0.2
2014-Apr-17 16:30N 47°38' W 122°15'0 0.0
2014-Apr-17 16:30N 47°38' W 122°15'0 0.4
2014-Apr-17 15:33N 47°39' W 122°15'0 8.3
2014-Apr-17 15:30N 47°39' W 122°16'3 3.3
2014-Apr-17 14:33N 47°39' W 122°20'0 0.0
2014-Apr-17 14:30N 47°39' W 122°20'0 0.0
2014-Apr-17 13:33N 47°39' W 122°20'0 0.0
2014-Apr-17 13:30N 47°39' W 122°20'0 0.0
2014-Apr-17 12:33N 47°39' W 122°20'0 0.0
2014-Apr-17 12:29N 47°39' W 122°20'0 0.0
2014-Apr-17 11:33N 47°39' W 122°20'0 0.0
2014-Apr-17 11:29N 47°39' W 122°20'0 0.0
2014-Apr-17 10:33N 47°39' W 122°20'0 0.0
2014-Apr-17 10:30N 47°39' W 122°20'0 0.0
2014-Apr-17 09:33N 47°39' W 122°20'0 0.0
2014-Apr-17 09:30N 47°39' W 122°20'0 0.0
2014-Apr-17 08:33N 47°39' W 122°20'0 0.0
2014-Apr-17 08:29N 47°39' W 122°20'0 0.0
2014-Apr-17 07:33N 47°39' W 122°20'0 0.0
2014-Apr-17 07:29N 47°39' W 122°20'0 0.0
2014-Apr-17 06:34N 47°39' W 122°20'0 0.0
2014-Apr-17 06:29N 47°39' W 122°20'0 0.0
2014-Apr-17 05:44N 47°39' W 122°20'0 0.0
2014-Apr-17 05:34N 47°39' W 122°20'2 1.9
2014-Apr-17 04:33N 47°39' W 122°18'1 1.2
2014-Apr-17 03:59N 47°39' W 122°17'0 0.2
2014-Apr-17 03:33N 47°39' W 122°17'0 2.3
2014-Apr-17 03:30N 47°39' W 122°17'2 2.1
2014-Apr-17 02:33N 47°39' W 122°20'0 2.6
2014-Apr-17 02:24N 47°39' W 122°20'2 2.3
2014-Apr-17 01:33N 47°40' W 122°23'0 2.6
2014-Apr-17 01:29N 47°40' W 122°23'1 0.8
2014-Apr-17 00:34N 47°40' W 122°24'0 0.0
2014-Apr-17 00:33N 47°40' W 122°24'1 0.8
2014-Apr-16 23:34N 47°41' W 122°25'0 2.6
2014-Apr-16 23:33N 47°41' W 122°25'1 0.9
2014-Apr-16 22:33N 47°40' W 122°26'0 0.0
2014-Apr-16 22:29N 47°40' W 122°26'0 0.0
2014-Apr-16 21:33N 47°40' W 122°26'0 0.0
2014-Apr-16 21:33N 47°40' W 122°26'0 0.0
2014-Apr-16 20:33N 47°40' W 122°26'0 0.0
2014-Apr-16 20:33N 47°40' W 122°26'0 0.0
2014-Apr-16 19:33N 47°40' W 122°26'0 0.0
2014-Apr-16 19:33N 47°40' W 122°26'0 0.0
2014-Apr-16 18:33N 47°40' W 122°26'0 0.0
2014-Apr-16 18:33N 47°40' W 122°26'0 0.4
2014-Apr-16 17:33N 47°40' W 122°26'0 3.9
2014-Apr-16 17:33N 47°40' W 122°26'2 1.9
2014-Apr-16 16:33N 47°40' W 122°23'0 0.0
2014-Apr-16 16:33N 47°40' W 122°23'2 2.1
2014-Apr-16 15:32N 47°39' W 122°20'0 0.0
2014-Apr-16 14:33N 47°39' W 122°20'0 0.0
2014-Apr-16 14:33N 47°39' W 122°20'0 0.0
2014-Apr-16 13:33N 47°39' W 122°20'0 0.0
2014-Apr-16 13:28N 47°39' W 122°20'0 0.0
2014-Apr-16 12:33N 47°39' W 122°20'0 0.3
2014-Apr-16 12:32N 47°39' W 122°20'0 0.0
2014-Apr-16 11:33N 47°39' W 122°20'0 0.0
2014-Apr-16 11:28N 47°39' W 122°20'0 0.0
2014-Apr-16 10:33N 47°39' W 122°20'0 0.0
2014-Apr-16 10:33N 47°39' W 122°20'0 0.0
2014-Apr-16 09:33N 47°39' W 122°20'0 0.0
2014-Apr-16 09:33N 47°39' W 122°20'0 0.0
2014-Apr-16 08:33N 47°39' W 122°20'0 0.0
2014-Apr-16 08:33N 47°39' W 122°20'0 0.0
2014-Apr-16 07:33N 47°39' W 122°20'0 0.0
2014-Apr-16 07:32N 47°39' W 122°20'0 0.0
2014-Apr-16 06:33N 47°39' W 122°20'0 0.5
2014-Apr-16 06:33N 47°39' W 122°20'0 0.0
2014-Apr-16 05:47N 47°39' W 122°20'0 0.0
2014-Apr-16 05:33N 47°39' W 122°20'0 0.0
2014-Apr-16 04:33N 47°39' W 122°20'0 0.0
2014-Apr-16 04:32N 47°39' W 122°20'0 0.0
2014-Apr-16 03:33N 47°39' W 122°20'0 0.3
2014-Apr-16 03:32N 47°39' W 122°20'3 2.6
2014-Apr-16 02:33N 47°39' W 122°17'0 0.0
2014-Apr-16 02:32N 47°39' W 122°17'2 2.2
2014-Apr-16 01:33N 47°40' W 122°15'2 8.0
2014-Apr-16 01:22N 47°42' W 122°15'4 4.5
2014-Apr-16 00:33N 47°45' W 122°15'1 1.2
2014-Apr-15 23:33N 47°44' W 122°16'2 8.5
2014-Apr-15 23:21N 47°43' W 122°16'4 5.0
2014-Apr-15 22:33N 47°39' W 122°15'0 0.7
2014-Apr-15 22:32N 47°39' W 122°15'1 1.0
2014-Apr-15 21:33N 47°39' W 122°17'0 0.0
2014-Apr-15 21:32N 47°39' W 122°17'1 1.0
2014-Apr-15 20:33N 47°39' W 122°15'0 0.0
2014-Apr-15 20:27N 47°39' W 122°15'0 0.0
2014-Apr-15 19:33N 47°39' W 122°15'0 0.0
2014-Apr-15 19:32N 47°39' W 122°15'0 0.0
2014-Apr-15 18:33N 47°39' W 122°15'0 0.0
2014-Apr-15 18:32N 47°39' W 122°15'0 0.1
2014-Apr-15 17:33N 47°39' W 122°15'0 3.4
2014-Apr-15 17:31N 47°39' W 122°15'0 0.3
2014-Apr-15 16:33N 47°38' W 122°15'0 1.7
2014-Apr-15 16:32N 47°38' W 122°15'3 3.5
2014-Apr-15 15:33N 47°39' W 122°20'0 5.3
2014-Apr-15 15:31N 47°39' W 122°20'0 0.4
2014-Apr-15 14:33N 47°39' W 122°20'0 0.2
2014-Apr-15 14:31N 47°39' W 122°20'0 0.0
2014-Apr-15 13:31N 47°39' W 122°20'0 0.0
2014-Apr-15 12:34N 47°39' W 122°20'0 0.0
2014-Apr-15 12:27N 47°39' W 122°20'0 0.0
2014-Apr-15 11:34N 47°39' W 122°20'0 0.0
2014-Apr-15 11:31N 47°39' W 122°20'0 0.0
2014-Apr-15 10:34N 47°39' W 122°20'0 0.0
2014-Apr-15 10:32N 47°39' W 122°20'0 0.0
2014-Apr-15 09:34N 47°39' W 122°20'0 0.0
2014-Apr-15 09:32N 47°39' W 122°20'0 0.0
2014-Apr-15 08:34N 47°39' W 122°20'0 0.0
2014-Apr-15 08:31N 47°39' W 122°20'0 0.0
2014-Apr-15 07:34N 47°39' W 122°20'0 0.0
2014-Apr-15 07:31N 47°39' W 122°20'0 0.0
2014-Apr-15 06:34N 47°39' W 122°20'0 0.0
2014-Apr-15 06:31N 47°39' W 122°20'0 0.0
2014-Apr-15 05:51N 47°39' W 122°20'0 0.0
2014-Apr-15 05:34N 47°39' W 122°20'0 0.0
2014-Apr-15 04:31N 47°39' W 122°20'0 0.0
2014-Apr-15 03:34N 47°39' W 122°20'0 0.0
2014-Apr-15 03:31N 47°39' W 122°20'0 0.0
2014-Apr-15 02:34N 47°39' W 122°20'0 9.3
2014-Apr-15 02:31N 47°39' W 122°20'0 0.2
2014-Apr-15 01:34N 47°39' W 122°20'469.7
2014-Apr-15 01:31N 47°38' W 122°15'0 0.2
2014-Apr-15 00:34N 47°38' W 122°15'4 3.6
2014-Apr-14 23:33N 47°42' W 122°15'118.8
2014-Apr-14 23:30N 47°43' W 122°16'0 0.5
2014-Apr-14 22:34N 47°43' W 122°16'589.8
2014-Apr-14 22:30N 47°39' W 122°20'0 0.3
2014-Apr-14 21:34N 47°39' W 122°20'010.8
2014-Apr-14 21:31N 47°39' W 122°20'0 0.0
2014-Apr-14 20:34N 47°39' W 122°20'0 0.0
2014-Apr-14 18:06N 47°39' W 122°20'0 0.0
2014-Apr-14 17:31N 47°39' W 122°20'0 0.0
2014-Apr-14 16:33N 47°39' W 122°20'0 0.0
2014-Apr-14 15:33N 47°39' W 122°20'4 2.8
2014-Apr-14 14:11N 47°38' W 122°15'1 2.1
2014-Apr-14 13:33N 47°39' W 122°17'124.4
2014-Apr-14 13:30N 47°38' W 122°15'4 2.6
2014-Apr-14 11:56N 47°42' W 122°16'3 8.0
2014-Apr-14 11:34N 47°45' W 122°15'6115.4
2014-Apr-14 11:30N 47°39' W 122°15'0 0.5
2014-Apr-14 10:34N 47°39' W 122°15'478.6
2014-Apr-14 10:31N 47°39' W 122°20'0 0.2
2014-Apr-14 09:33N 47°39' W 122°20'0 2.9
2014-Apr-14 09:30N 47°39' W 122°20'0 0.0
2014-Apr-14 08:33N 47°39' W 122°20'0 0.0
2014-Apr-14 08:25N 47°39' W 122°20'0 0.0
2014-Apr-14 07:33N 47°39' W 122°20'0 0.0
2014-Apr-14 07:30N 47°39' W 122°20'0 0.0
2014-Apr-14 06:33N 47°39' W 122°20'0 0.0
2014-Apr-14 06:30N 47°39' W 122°20'0 0.0
2014-Apr-14 05:45N 47°39' W 122°20'0 0.0
2014-Apr-14 05:33N 47°39' W 122°20'0 0.0
2014-Apr-14 04:29N 47°39' W 122°20'0 0.0
2014-Apr-14 03:29N 47°39' W 122°20'0 0.0
2014-Apr-14 02:18N 47°39' W 122°20'2 2.2
2014-Apr-14 01:19N 47°39' W 122°17'5 1.7
2014-Apr-13 22:33N 47°40' W 122°24'0 0.4
2014-Apr-13 21:33N 47°40' W 122°24'0 0.0
2014-Apr-13 20:33N 47°40' W 122°24'1 1.2
2014-Apr-13 19:33N 47°40' W 122°26'0 0.4
2014-Apr-13 18:33N 47°40' W 122°26'0 0.0
2014-Apr-13 17:33N 47°40' W 122°26'0 0.0
2014-Apr-13 16:33N 47°40' W 122°26'0 0.2
2014-Apr-13 15:33N 47°40' W 122°26'1 0.7
2014-Apr-13 14:33N 47°41' W 122°25'2 2.1
2014-Apr-13 13:33N 47°40' W 122°23'4 4.1
2014-Apr-13 12:33N 47°39' W 122°17'3 2.5
2014-Apr-13 11:33N 47°39' W 122°20'0 0.0
2014-Apr-13 10:33N 47°39' W 122°20'0 0.0
2014-Apr-13 09:33N 47°39' W 122°20'0 0.0
2014-Apr-13 08:33N 47°39' W 122°20'0 0.0
2014-Apr-13 07:33N 47°39' W 122°20'0 0.0
2014-Apr-13 06:33N 47°39' W 122°20'0 0.0
2014-Apr-13 05:33N 47°39' W 122°20'0 0.0
2014-Apr-13 04:33N 47°39' W 122°20'0 0.0
2014-Apr-13 03:33N 47°39' W 122°20'0 0.0
2014-Apr-13 02:33N 47°39' W 122°20'0 0.0
2014-Apr-13 01:33N 47°39' W 122°20'0 0.0
2014-Apr-13 00:33N 47°39' W 122°20'0 0.0
2014-Apr-12 23:33N 47°39' W 122°20'0 0.0
2014-Apr-12 22:32N 47°39' W 122°20'0 0.0
2014-Apr-12 21:33N 47°39' W 122°20'0 0.0
2014-Apr-12 20:52N 47°39' W 122°20'0 0.0
2014-Apr-12 20:33N 47°39' W 122°20'0 0.0
2014-Apr-12 20:32N 47°39' W 122°20'0 0.0
2014-Apr-12 19:33N 47°39' W 122°20'0 0.0
2014-Apr-12 19:32N 47°39' W 122°20'0 0.0
2014-Apr-12 18:33N 47°39' W 122°20'0 0.0
2014-Apr-12 18:32N 47°39' W 122°20'0 0.0
2014-Apr-12 17:33N 47°39' W 122°20'0 0.0
2014-Apr-12 17:32N 47°39' W 122°20'0 0.0
2014-Apr-12 16:33N 47°39' W 122°20'0 0.1
2014-Apr-12 16:31N 47°39' W 122°20'0 0.0
2014-Apr-12 15:33N 47°39' W 122°20'0 0.0
2014-Apr-12 15:26N 47°39' W 122°20'0 0.0
2014-Apr-12 14:33N 47°39' W 122°20'0 0.0
2014-Apr-12 14:31N 47°39' W 122°20'0 0.0
2014-Apr-12 13:33N 47°39' W 122°20'0 0.0
2014-Apr-12 13:31N 47°39' W 122°20'0 0.0
2014-Apr-12 12:33N 47°39' W 122°20'0 0.0
2014-Apr-12 12:24N 47°39' W 122°20'0 0.0
2014-Apr-12 11:33N 47°39' W 122°20'0 0.0
2014-Apr-12 10:33N 47°39' W 122°20'0 0.0
2014-Apr-12 09:33N 47°39' W 122°20'0 0.0
2014-Apr-12 08:49N 47°39' W 122°20'0 0.0
2014-Apr-12 08:33N 47°39' W 122°20'0 0.0
2014-Apr-12 08:29N 47°39' W 122°20'0 0.0
2014-Apr-12 07:33N 47°39' W 122°20'0 0.0
2014-Apr-12 07:29N 47°39' W 122°20'0 0.0
2014-Apr-12 06:34N 47°39' W 122°20'0 0.0
2014-Apr-12 06:33N 47°39' W 122°20'0 0.0
2014-Apr-12 05:49N 47°39' W 122°20'0 0.0
2014-Apr-12 05:33N 47°39' W 122°20'0 0.0
2014-Apr-12 04:33N 47°39' W 122°20'0 0.0
2014-Apr-12 04:29N 47°39' W 122°20'4 3.8
2014-Apr-12 03:33N 47°39' W 122°15'0 5.5
2014-Apr-12 03:29N 47°38' W 122°15'7 7.1
2014-Apr-12 02:33N 47°45' W 122°16'3 2.8
2014-Apr-12 01:34N 47°42' W 122°16'013.9
2014-Apr-12 01:33N 47°42' W 122°15'2 8.8
2014-Apr-12 01:23N 47°41' W 122°15'2 2.8
2014-Apr-12 00:33N 47°39' W 122°16'0 3.1
2014-Apr-12 00:29N 47°39' W 122°16'0 0.4
2014-Apr-11 23:34N 47°39' W 122°16'0 4.0
2014-Apr-11 23:33N 47°39' W 122°16'0 0.2
2014-Apr-11 22:33N 47°39' W 122°16'1 2.4
2014-Apr-11 22:18N 47°39' W 122°17'0 0.0
2014-Apr-11 21:34N 47°39' W 122°17'0 0.0
2014-Apr-11 21:33N 47°39' W 122°17'0 0.0
2014-Apr-11 20:33N 47°39' W 122°17'0 0.0
2014-Apr-11 20:33N 47°39' W 122°17'0 0.0
2014-Apr-11 19:33N 47°39' W 122°17'0 0.0
2014-Apr-11 19:33N 47°39' W 122°17'0 0.0
2014-Apr-11 18:33N 47°39' W 122°17'0 0.0
2014-Apr-11 18:33N 47°39' W 122°17'0 0.0
2014-Apr-11 17:33N 47°39' W 122°17'0 0.0
2014-Apr-11 17:33N 47°39' W 122°17'0 0.0
2014-Apr-11 16:33N 47°39' W 122°17'0 0.1
2014-Apr-11 16:28N 47°39' W 122°17'0 0.0
2014-Apr-11 15:33N 47°39' W 122°17'0 0.0
2014-Apr-11 15:32N 47°39' W 122°17'0 0.0
2014-Apr-11 14:33N 47°39' W 122°17'0 0.0
2014-Apr-11 14:33N 47°39' W 122°17'0 0.4
2014-Apr-11 13:33N 47°39' W 122°16'0 0.0
2014-Apr-11 13:33N 47°39' W 122°16'6 6.1
2014-Apr-11 12:32N 47°45' W 122°16'3 3.8
2014-Apr-11 11:48N 47°42' W 122°16'2 8.9
2014-Apr-11 11:34N 47°40' W 122°14'0 6.4
2014-Apr-11 11:33N 47°40' W 122°14'4 4.3
2014-Apr-11 10:33N 47°39' W 122°20'0 0.0
2014-Apr-11 10:33N 47°39' W 122°20'0 0.0
2014-Apr-11 09:33N 47°39' W 122°20'0 0.0
2014-Apr-11 09:33N 47°39' W 122°20'0 0.0
2014-Apr-11 08:34N 47°39' W 122°20'0 0.0
2014-Apr-11 08:33N 47°39' W 122°20'0 0.0
2014-Apr-11 07:34N 47°39' W 122°20'0 0.0
2014-Apr-11 07:33N 47°39' W 122°20'0 0.0
2014-Apr-11 06:33N 47°39' W 122°20'0 0.0
2014-Apr-11 06:33N 47°39' W 122°20'0 0.0
2014-Apr-11 05:38N 47°39' W 122°20'0 0.0
2014-Apr-11 05:33N 47°39' W 122°20'0 0.0
2014-Apr-11 04:33N 47°39' W 122°20'0 0.0
2014-Apr-11 04:33N 47°39' W 122°20'0 0.0
2014-Apr-11 03:33N 47°39' W 122°20'0 0.0
2014-Apr-11 03:33N 47°39' W 122°20'0 0.0
2014-Apr-11 02:33N 47°39' W 122°20'0 0.0
2014-Apr-11 02:33N 47°39' W 122°20'0 0.0
2014-Apr-11 01:33N 47°39' W 122°20'0 0.0
2014-Apr-11 01:33N 47°39' W 122°20'0 0.0
2014-Apr-11 00:33N 47°39' W 122°20'0 0.0
2014-Apr-11 00:32N 47°39' W 122°20'0 0.0
2014-Apr-10 23:33N 47°39' W 122°20'0 0.0
2014-Apr-10 22:33N 47°39' W 122°20'0 0.0
2014-Apr-10 22:25N 47°39' W 122°20'3 3.0
2014-Apr-10 21:32N 47°39' W 122°17'0 3.0
2014-Apr-10 21:29N 47°39' W 122°17'1 1.4
2014-Apr-10 20:33N 47°38' W 122°15'0 0.3
2014-Apr-10 20:25N 47°38' W 122°15'1 0.8
2014-Apr-10 19:33N 47°39' W 122°16'0 4.4
2014-Apr-10 19:30N 47°39' W 122°16'0 0.3
2014-Apr-10 18:33N 47°39' W 122°17'0 0.0
2014-Apr-10 18:30N 47°39' W 122°17'0 0.0
2014-Apr-10 17:33N 47°39' W 122°17'0 0.1
2014-Apr-10 17:30N 47°39' W 122°17'2 1.6
2014-Apr-10 16:30N 47°38' W 122°15'0 0.4
2014-Apr-10 15:55N 47°39' W 122°15'0 0.4
2014-Apr-10 15:33N 47°38' W 122°15'0 0.1
2014-Apr-10 15:30N 47°38' W 122°15'0 0.2
2014-Apr-10 14:33N 47°39' W 122°15'0 0.4
2014-Apr-10 14:24N 47°38' W 122°15'0 0.0
2014-Apr-10 13:33N 47°38' W 122°15'0 0.9
2014-Apr-10 13:29N 47°39' W 122°15'4 4.1
2014-Apr-10 12:33N 47°39' W 122°20'0 0.0
2014-Apr-10 12:29N 47°39' W 122°20'0 0.0
2014-Apr-10 11:33N 47°39' W 122°20'0 0.0
2014-Apr-10 11:29N 47°39' W 122°20'0 0.0
2014-Apr-10 08:12N 47°39' W 122°20'0 0.0
2014-Apr-10 08:09N 47°39' W 122°20'0 0.0
2014-Apr-10 07:33N 47°39' W 122°20'0 0.0
2014-Apr-10 07:29N 47°39' W 122°20'0 0.0
2014-Apr-10 06:21N 47°39' W 122°20'0 0.0
2014-Apr-10 06:19N 47°39' W 122°20'0 0.0
2014-Apr-10 05:49N 47°39' W 122°20'0 0.0
2014-Apr-10 05:34N 47°39' W 122°20'0 0.0
2014-Apr-10 04:33N 47°39' W 122°20'0 0.0
2014-Apr-10 04:29N 47°39' W 122°20'0 0.0
2014-Apr-10 03:33N 47°39' W 122°20'0 0.0
2014-Apr-10 03:29N 47°39' W 122°20'0 0.0
2014-Apr-10 02:33N 47°39' W 122°20'0 0.0
2014-Apr-10 02:29N 47°39' W 122°20'0 0.0
2014-Apr-10 01:33N 47°39' W 122°20'0 0.0
2014-Apr-10 01:29N 47°39' W 122°20'0 0.0
2014-Apr-10 00:34N 47°39' W 122°20'0 0.0
2014-Apr-10 00:34N 47°39' W 122°20'0 0.0
2014-Apr-09 23:34N 47°39' W 122°20'0 0.0
2014-Apr-09 23:33N 47°39' W 122°20'0 0.0
2014-Apr-09 22:34N 47°39' W 122°20'0 0.5
2014-Apr-09 22:33N 47°39' W 122°20'0 0.0
2014-Apr-09 21:34N 47°39' W 122°20'0 0.0
2014-Apr-09 21:33N 47°39' W 122°20'0 0.0
2014-Apr-09 20:34N 47°39' W 122°20'0 0.0
2014-Apr-09 20:33N 47°39' W 122°20'0 0.0
2014-Apr-09 19:34N 47°39' W 122°20'0 0.0
2014-Apr-09 19:33N 47°39' W 122°20'0 0.0
2014-Apr-09 18:33N 47°39' W 122°20'0 0.0
2014-Apr-09 18:13N 47°39' W 122°20'0 0.0
2014-Apr-09 17:34N 47°39' W 122°20'0 0.0
2014-Apr-09 17:33N 47°39' W 122°20'0 0.0
2014-Apr-09 16:33N 47°39' W 122°20'0 0.0
2014-Apr-09 16:33N 47°39' W 122°20'0 0.0
2014-Apr-09 15:33N 47°39' W 122°20'0 0.0
2014-Apr-09 15:32N 47°39' W 122°20'0 0.0
2014-Apr-09 14:33N 47°39' W 122°20'0 0.0
2014-Apr-09 14:32N 47°39' W 122°20'0 0.0
2014-Apr-09 13:33N 47°39' W 122°20'0 0.0
2014-Apr-09 13:32N 47°39' W 122°20'0 0.0
2014-Apr-09 12:34N 47°39' W 122°20'0 0.0
2014-Apr-09 12:32N 47°39' W 122°20'0 0.0
2014-Apr-09 11:33N 47°39' W 122°20'0 0.0
2014-Apr-09 11:20N 47°39' W 122°20'0 0.0
2014-Apr-09 10:33N 47°39' W 122°20'0 0.0
2014-Apr-09 10:30N 47°39' W 122°20'0 0.0
2014-Apr-09 09:33N 47°39' W 122°20'0 0.0
2014-Apr-09 09:30N 47°39' W 122°20'0 0.0
2014-Apr-09 08:33N 47°39' W 122°20'0 0.0
2014-Apr-09 08:30N 47°39' W 122°20'0 0.0
2014-Apr-09 07:33N 47°39' W 122°20'0 0.0
2014-Apr-09 07:30N 47°39' W 122°20'0 0.0
2014-Apr-09 06:33N 47°39' W 122°20'  

Dump ship's entire track history

sailing weather and tide predictions

Solana — WCY5602 — position and weather